Time;durP1;ratioP1;P1;durP2;ratioP2;P2;SDS_P1;SDS_P2;PMS_P1;PMS_P2;Temp;Humidity;BMP_temperature;BMP_pressure;BME280_temperature;BME280_humidity;BME280_pressure;Samples;Min_cycle;Max_cycle;Signal;HPM_P1;HPM_P2
2022/06/01 00:01:03;;;;;;;19.10;17.00;;;;;;;;;;4993251;28;20044;-69
2022/06/01 00:03:30;;;;;;;18.55;16.58;;;;;;;;;;4993035;28;20620;-72
2022/06/01 00:05:57;;;;;;;20.23;17.88;;;;;;;;;;4992897;28;20069;-70
2022/06/01 00:08:24;;;;;;;19.67;17.67;;;;;;;;;;4992460;28;20041;-70
2022/06/01 00:10:50;;;;;;;20.42;18.27;;;;;;;;;;4992951;28;20110;-72
2022/06/01 00:13:16;;;;;;;22.95;18.63;;;;;;;;;;4992975;28;20392;-70
2022/06/01 00:15:43;;;;;;;23.75;20.13;;;;;;;;;;4993080;28;20022;-70
2022/06/01 00:18:09;;;;;;;24.55;22.05;;;;;;;;;;4992210;28;20024;-70
2022/06/01 00:20:35;;;;;;;24.83;22.15;;;;;;;;;;4991645;28;20023;-69
2022/06/01 00:23:01;;;;;;;24.02;21.55;;;;;;;;;;4992893;28;20139;-69
2022/06/01 00:25:27;;;;;;;23.40;20.83;;;;;;;;;;4993515;28;20034;-70
2022/06/01 00:27:53;;;;;;;25.88;21.30;;;;;;;;;;4992394;28;20069;-70
2022/06/01 00:30:20;;;;;;;29.25;23.40;;;;;;;;;;4994625;28;20030;-70
2022/06/01 00:32:46;;;;;;;22.60;20.20;;;;;;;;;;4993651;28;20031;-70
2022/06/01 00:35:14;;;;;;;23.75;21.13;;;;;;;;;;4994081;28;20026;-70
2022/06/01 00:37:40;;;;;;;25.00;22.38;;;;;;;;;;4993001;28;20435;-70
2022/06/01 00:40:07;;;;;;;23.30;20.77;;;;;;;;;;4993962;28;20045;-71
2022/06/01 00:42:34;;;;;;;25.85;20.95;;;;;;;;;;4993895;28;20066;-70
2022/06/01 00:45:01;;;;;;;25.33;22.48;;;;;;;;;;4990927;28;20033;-71
2022/06/01 00:47:27;;;;;;;24.98;22.05;;;;;;;;;;5019406;23;20053;-68
2022/06/01 00:49:59;;;;;;;27.52;22.30;;;;;;;;;;5011837;28;20536;-67
2022/06/01 00:52:35;;;;;;;23.55;21.05;;;;;;;;;;5012177;28;20144;-68
2022/06/01 00:55:21;;;;;;;22.15;19.85;;;;;;;;;;5012121;28;20018;-67
2022/06/01 00:57:48;;;;;;;24.08;20.88;;;;;;;;;;4991677;28;20068;-70
2022/06/01 01:00:17;;;;;;;26.05;21.77;;;;;;;;;;4991293;28;20034;-69
2022/06/01 01:02:43;;;;;;;24.50;20.40;;;;;;;;;;4992454;28;20030;-67
2022/06/01 01:05:11;;;;;;;22.58;20.15;;;;;;;;;;4992229;28;20049;-66
2022/06/01 01:07:37;;;;;;;25.50;19.88;;;;;;;;;;4991499;28;20030;-68
2022/06/01 01:10:04;;;;;;;23.70;19.60;;;;;;;;;;4992219;28;20030;-67
2022/06/01 01:12:56;;;;;;;24.17;21.42;;;;;;;;;;4991909;28;20042;-67
2022/06/01 01:15:16;;;;;;;24.52;21.55;;;;;;;;;;4991650;28;20077;-67
2022/06/01 01:17:42;;;;;;;25.98;22.90;;;;;;;;;;4989767;28;20506;-69
2022/06/01 01:20:09;;;;;;;29.35;23.88;;;;;;;;;;4992016;28;20030;-69
2022/06/01 01:22:45;;;;;;;31.33;26.00;;;;;;;;;;4992129;28;20069;-69
2022/06/01 01:25:11;;;;;;;29.90;24.40;;;;;;;;;;4991795;28;20026;-68
2022/06/01 01:27:37;;;;;;;30.90;26.08;;;;;;;;;;4991196;28;20061;-68
2022/06/01 01:30:23;;;;;;;31.95;26.73;;;;;;;;;;4991892;28;20515;-68
2022/06/01 01:32:49;;;;;;;35.88;28.27;;;;;;;;;;4992023;28;20038;-68
2022/06/01 01:35:15;;;;;;;36.45;29.13;;;;;;;;;;4991807;28;20030;-69
2022/06/01 01:37:43;;;;;;;35.58;27.83;;;;;;;;;;4991004;28;20031;-70
2022/06/01 01:40:09;;;;;;;31.60;26.63;;;;;;;;;;4990712;28;20070;-69
2022/06/01 01:42:35;;;;;;;32.95;26.52;;;;;;;;;;4990665;28;20035;-69
2022/06/01 01:45:14;;;;;;;30.55;25.52;;;;;;;;;;4992031;28;20026;-68
2022/06/01 01:47:40;;;;;;;31.90;26.08;;;;;;;;;;4989753;28;20034;-68
2022/06/01 01:50:10;;;;;;;28.48;25.40;;;;;;;;;;4991669;28;20030;-69
2022/06/01 01:52:36;;;;;;;35.85;27.98;;;;;;;;;;4991822;28;20385;-68
2022/06/01 01:55:15;;;;;;;33.22;26.50;;;;;;;;;;4991831;28;20026;-68
2022/06/01 01:57:56;;;;;;;38.80;27.80;;;;;;;;;;4990941;28;20477;-68
2022/06/01 02:00:22;;;;;;;;;;;;;;;;;;4992115;28;20031;-67
2022/06/01 02:02:51;;;;;;;35.85;26.83;;;;;;;;;;4991611;28;19910;-68
2022/06/01 02:08:12;;;;;;;34.17;25.58;;;;;;;;;;4990963;28;20041;-69
2022/06/01 02:13:24;;;;;;;32.78;27.33;;;;;;;;;;4995356;28;20045;-69
2022/06/01 02:15:51;;;;;;;34.40;27.52;;;;;;;;;;4995151;28;20034;-68
2022/06/01 02:18:20;;;;;;;35.83;27.92;;;;;;;;;;4993130;28;20044;-70
2022/06/01 02:20:48;;;;;;;30.08;25.08;;;;;;;;;;4994993;28;20432;-68
2022/06/01 02:23:15;;;;;;;33.55;26.52;;;;;;;;;;4995004;28;20030;-69
2022/06/01 02:25:42;;;;;;;40.15;25.58;;;;;;;;;;4993424;28;20026;-68
2022/06/01 02:28:09;;;;;;;28.20;24.30;;;;;;;;;;4994254;28;20401;-69
2022/06/01 02:30:40;;;;;;;31.70;25.48;;;;;;;;;;4994783;28;20041;-69
2022/06/01 02:33:12;;;;;;;21.60;18.23;;;;;;;;;;4993570;28;20511;-70
2022/06/01 02:35:40;;;;;;;27.85;24.15;;;;;;;;;;4993518;28;20495;-69
2022/06/01 02:38:10;;;;;;;28.73;23.75;;;;;;;;;;4993933;28;20023;-69
2022/06/01 02:40:37;;;;;;;28.67;24.17;;;;;;;;;;4993539;28;20026;-69
2022/06/01 02:43:03;;;;;;;29.25;24.27;;;;;;;;;;4994717;28;20026;-70
2022/06/01 02:45:30;;;;;;;33.42;24.08;;;;;;;;;;4993345;28;20072;-67
2022/06/01 02:47:57;;;;;;;31.45;24.88;;;;;;;;;;4992478;28;20041;-67
2022/06/01 02:50:24;;;;;;;30.35;23.50;;;;;;;;;;4994601;28;20400;-68
2022/06/01 02:52:50;;;;;;;29.05;23.70;;;;;;;;;;4993019;28;20105;-70
2022/06/01 02:55:17;;;;;;;31.27;25.55;;;;;;;;;;4994395;28;20101;-69
2022/06/01 02:57:44;;;;;;;33.92;26.70;;;;;;;;;;4993830;28;20109;-68
2022/06/01 03:00:17;;;;;;;36.15;28.95;;;;;;;;;;4994066;28;20041;-68
2022/06/01 03:02:43;;;;;;;32.67;26.60;;;;;;;;;;4994550;28;20030;-69
2022/06/01 03:05:09;;;;;;;164.73;94.63;;;;;;;;;;4994213;28;20033;-69
2022/06/01 03:07:35;;;;;;;354.45;184.25;;;;;;;;;;4993568;28;20034;-68
2022/06/01 03:10:01;;;;;;;106.75;59.45;;;;;;;;;;4994234;28;20033;-69
2022/06/01 03:12:27;;;;;;;131.70;66.00;;;;;;;;;;4994427;28;20030;-69
2022/06/01 03:14:53;;;;;;;129.68;65.13;;;;;;;;;;4994121;28;20022;-69
2022/06/01 03:17:19;;;;;;;146.45;77.55;;;;;;;;;;4993394;28;20034;-69
2022/06/01 03:19:45;;;;;;;168.10;82.50;;;;;;;;;;4993868;28;20446;-69
2022/06/01 03:22:11;;;;;;;104.03;53.20;;;;;;;;;;4993645;28;20109;-69
2022/06/01 03:24:37;;;;;;;116.57;56.13;;;;;;;;;;4993402;28;20045;-68
2022/06/01 03:27:03;;;;;;;81.05;42.47;;;;;;;;;;4993666;28;20113;-67
2022/06/01 03:29:29;;;;;;;67.60;36.03;;;;;;;;;;4994510;28;20081;-69
2022/06/01 03:31:56;;;;;;;42.90;28.30;;;;;;;;;;4995786;28;20022;-70
2022/06/01 03:34:22;;;;;;;59.63;34.28;;;;;;;;;;4995504;28;20026;-68
2022/06/01 03:36:48;;;;;;;48.13;29.58;;;;;;;;;;4994874;28;20049;-67
2022/06/01 03:39:14;;;;;;;26.30;18.23;;;;;;;;;;4994230;28;20026;-68
2022/06/01 03:41:40;;;;;;;22.48;16.67;;;;;;;;;;4994660;28;20515;-68
2022/06/01 03:46:52;;;;;;;22.27;15.55;;;;;;;;;;4995569;28;20065;-68
2022/06/01 03:49:18;;;;;;;22.85;15.45;;;;;;;;;;4995517;28;20026;-69
2022/06/01 03:51:44;;;;;;;29.98;18.40;;;;;;;;;;4998652;28;20018;-69
2022/06/01 03:54:10;;;;;;;28.33;18.42;;;;;;;;;;4994627;28;20099;-69
2022/06/01 03:56:36;;;;;;;14.98;13.02;;;;;;;;;;4997603;28;20053;-69
2022/06/01 03:59:03;;;;;;;20.05;13.48;;;;;;;;;;4993427;28;20037;-70
2022/06/01 04:01:29;;;;;;;16.20;13.13;;;;;;;;;;4993402;28;20030;-68
2022/06/01 04:03:55;;;;;;;15.93;12.85;;;;;;;;;;4993400;28;20037;-69
2022/06/01 04:06:20;;;;;;;15.32;12.75;;;;;;;;;;4993794;28;20605;-70
2022/06/01 04:08:46;;;;;;;12.43;11.20;;;;;;;;;;4992509;28;20048;-69
2022/06/01 04:11:12;;;;;;;13.77;12.10;;;;;;;;;;4992812;28;20034;-68
2022/06/01 04:13:38;;;;;;;12.32;10.52;;;;;;;;;;4992962;28;20026;-67
2022/06/01 04:16:04;;;;;;;11.82;9.80;;;;;;;;;;4992469;28;20538;-68
2022/06/01 04:18:30;;;;;;;12.80;10.20;;;;;;;;;;4992155;28;20030;-69
2022/06/01 04:20:57;;;;;;;12.48;9.15;;;;;;;;;;4992689;28;20080;-69
2022/06/01 04:23:23;;;;;;;11.35;9.85;;;;;;;;;;4992307;28;20033;-68
2022/06/01 04:25:49;;;;;;;11.00;9.90;;;;;;;;;;4991154;28;20018;-68
2022/06/01 04:28:15;;;;;;;10.68;9.57;;;;;;;;;;4990374;28;20034;-67
2022/06/01 04:30:41;;;;;;;9.77;8.05;;;;;;;;;;4992153;28;20037;-67
2022/06/01 04:33:08;;;;;;;8.82;7.70;;;;;;;;;;4992244;28;20088;-68
2022/06/01 04:35:34;;;;;;;8.20;7.40;;;;;;;;;;4992159;28;20041;-68
2022/06/01 04:38:15;;;;;;;9.30;8.25;;;;;;;;;;4991407;28;20030;-69
2022/06/01 04:40:47;;;;;;;8.82;6.68;;;;;;;;;;4992102;28;20029;-67
2022/06/01 04:43:14;;;;;;;9.43;8.48;;;;;;;;;;4990734;28;20488;-68
2022/06/01 04:45:40;;;;;;;8.38;7.57;;;;;;;;;;4992009;28;20068;-70
2022/06/01 04:48:06;;;;;;;11.55;8.93;;;;;;;;;;4992796;28;20109;-69
2022/06/01 04:50:33;;;;;;;8.27;7.47;;;;;;;;;;4990639;28;20034;-68
2022/06/01 04:52:59;;;;;;;9.88;8.68;;;;;;;;;;4991893;28;20067;-69
2022/06/01 04:55:25;;;;;;;9.05;8.15;;;;;;;;;;4991545;28;20050;-69
2022/06/01 04:57:51;;;;;;;9.27;8.35;;;;;;;;;;4991139;28;20021;-70
2022/06/01 05:00:17;;;;;;;9.27;8.38;;;;;;;;;;4992026;28;20431;-66
2022/06/01 05:02:43;;;;;;;8.98;8.07;;;;;;;;;;4987180;28;20054;-68
2022/06/01 05:05:10;;;;;;;12.05;9.00;;;;;;;;;;4991762;28;20400;-69
2022/06/01 05:07:36;;;;;;;9.95;8.95;;;;;;;;;;4991095;28;20038;-68
2022/06/01 05:10:02;;;;;;;10.70;9.40;;;;;;;;;;4991765;28;20235;-69
2022/06/01 05:12:28;;;;;;;8.45;7.65;;;;;;;;;;4990005;28;20109;-68
2022/06/01 05:14:54;;;;;;;8.25;7.28;;;;;;;;;;4991145;28;20475;-70
2022/06/01 05:17:20;;;;;;;8.10;6.45;;;;;;;;;;4990496;28;20054;-69
2022/06/01 05:19:46;;;;;;;7.53;6.78;;;;;;;;;;4991565;28;20504;-70
2022/06/01 05:22:11;;;;;;;7.95;5.88;;;;;;;;;;4991635;28;20121;-68
2022/06/01 05:24:38;;;;;;;6.88;6.28;;;;;;;;;;4991587;28;20026;-66
2022/06/01 05:27:04;;;;;;;8.23;6.60;;;;;;;;;;4989891;28;20027;-66
2022/06/01 05:29:30;;;;;;;8.60;6.00;;;;;;;;;;4991280;28;20101;-68
2022/06/01 05:31:56;;;;;;;7.25;5.72;;;;;;;;;;4991716;28;20633;-67
2022/06/01 05:34:22;;;;;;;7.88;6.30;;;;;;;;;;4991544;28;20141;-69
2022/06/01 05:36:48;;;;;;;7.28;6.57;;;;;;;;;;4991283;28;20022;-68
2022/06/01 05:39:14;;;;;;;7.10;6.13;;;;;;;;;;4990861;28;20023;-68
2022/06/01 05:41:40;;;;;;;6.50;5.55;;;;;;;;;;4991690;28;20026;-69
2022/06/01 05:44:06;;;;;;;6.25;5.68;;;;;;;;;;4984798;28;20083;-68
2022/06/01 05:46:35;;;;;;;5.35;4.82;;;;;;;;;;4988888;28;20113;-68
2022/06/01 05:49:01;;;;;;;4.82;4.43;;;;;;;;;;4992954;28;20077;-68
2022/06/01 05:51:27;;;;;;;5.28;4.63;;;;;;;;;;4991071;28;20030;-68
2022/06/01 05:53:53;;;;;;;6.38;5.68;;;;;;;;;;4995440;28;20018;-68
2022/06/01 05:56:19;;;;;;;7.82;7.13;;;;;;;;;;4995072;28;20435;-70
2022/06/01 05:58:46;;;;;;;9.52;8.18;;;;;;;;;;4994054;28;20081;-70
2022/06/01 06:01:12;;;;;;;10.68;8.68;;;;;;;;;;4995035;28;20026;-69
2022/06/01 06:03:38;;;;;;;8.50;7.70;;;;;;;;;;4995383;28;20455;-69
2022/06/01 06:06:14;;;;;;;9.38;7.18;;;;;;;;;;4994969;28;20033;-67
2022/06/01 06:08:42;;;;;;;8.93;6.10;;;;;;;;;;4994663;28;20122;-70
2022/06/01 06:11:08;;;;;;;5.20;4.70;;;;;;;;;;4994836;28;20074;-70
2022/06/01 06:13:37;;;;;;;3.97;3.58;;;;;;;;;;4994745;28;20062;-68
2022/06/01 06:16:04;;;;;;;4.65;3.33;;;;;;;;;;4994932;28;20022;-70
2022/06/01 06:18:30;;;;;;;6.78;3.17;;;;;;;;;;4976195;28;20026;-70
2022/06/01 06:20:56;;;;;;;2.83;2.40;;;;;;;;;;4974435;28;20030;-70
2022/06/01 06:23:22;;;;;;;3.95;2.50;;;;;;;;;;4988441;28;20035;-71
2022/06/01 06:25:48;;;;;;;4.65;2.35;;;;;;;;;;4974744;28;20054;-70
2022/06/01 06:28:14;;;;;;;2.80;2.60;;;;;;;;;;4974653;28;20049;-70
2022/06/01 06:30:40;;;;;;;2.42;2.00;;;;;;;;;;4990407;28;20089;-70
2022/06/01 06:33:07;;;;;;;3.08;2.28;;;;;;;;;;4975410;28;20500;-70
2022/06/01 06:35:33;;;;;;;5.18;2.42;;;;;;;;;;4974991;28;20033;-70
2022/06/01 06:38:00;;;;;;;2.60;1.95;;;;;;;;;;4974280;28;20022;-70
2022/06/01 06:40:26;;;;;;;2.05;1.85;;;;;;;;;;4974862;28;20081;-70
2022/06/01 06:42:53;;;;;;;2.17;2.08;;;;;;;;;;4975117;28;20489;-69
2022/06/01 06:45:19;;;;;;;2.92;1.95;;;;;;;;;;4975007;28;20037;-68
2022/06/01 06:47:45;;;;;;;3.53;1.63;;;;;;;;;;5013071;23;20046;-67
2022/06/01 06:50:11;;;;;;;2.17;1.40;;;;;;;;;;4994427;28;20069;-68
2022/06/01 06:52:38;;;;;;;1.55;1.45;;;;;;;;;;4994377;28;20065;-68
2022/06/01 06:55:04;;;;;;;3.55;1.85;;;;;;;;;;4994181;28;20077;-68
2022/06/01 06:57:30;;;;;;;1.75;0.85;;;;;;;;;;4993447;28;20507;-69
2022/06/01 06:59:56;;;;;;;2.22;0.85;;;;;;;;;;4994310;28;20034;-68
2022/06/01 07:02:22;;;;;;;2.63;1.20;;;;;;;;;;4994600;28;20457;-68
2022/06/01 07:04:48;;;;;;;2.08;1.05;;;;;;;;;;4994193;28;20030;-69
2022/06/01 07:07:15;;;;;;;2.83;1.13;;;;;;;;;;4993437;28;20030;-68
2022/06/01 07:09:41;;;;;;;1.38;1.00;;;;;;;;;;4993997;28;20094;-69
2022/06/01 07:12:07;;;;;;;1.67;0.90;;;;;;;;;;4993890;28;20026;-68
2022/06/01 07:14:33;;;;;;;1.33;0.90;;;;;;;;;;4993901;28;20023;-68
2022/06/01 07:17:00;;;;;;;2.97;1.60;;;;;;;;;;4991879;28;20018;-67
2022/06/01 07:19:26;;;;;;;2.15;1.13;;;;;;;;;;4989909;28;20428;-68
2022/06/01 07:21:52;;;;;;;1.02;0.80;;;;;;;;;;4983864;28;20054;-68
2022/06/01 07:24:18;;;;;;;3.20;1.05;;;;;;;;;;4986202;28;20027;-67
2022/06/01 07:26:45;;;;;;;1.83;0.95;;;;;;;;;;4974032;28;20099;-67
2022/06/01 07:29:12;;;;;;;2.40;1.33;;;;;;;;;;4985886;28;20030;-68
2022/06/01 07:31:38;;;;;;;4.97;1.40;;;;;;;;;;4993808;28;20024;-68
2022/06/01 07:34:05;;;;;;;1.33;1.00;;;;;;;;;;4993794;28;20097;-69
2022/06/01 07:36:31;;;;;;;1.67;0.80;;;;;;;;;;4990564;28;20022;-69
2022/06/01 07:44:27;;;;;;;1.70;0.73;;;;;;;;;;4974042;28;20034;-68
2022/06/01 07:46:53;;;;;;;1.27;0.93;;;;;;;;;;4973852;28;20039;-69
2022/06/01 07:49:19;;;;;;;1.38;0.80;;;;;;;;;;4971700;28;20049;-69
2022/06/01 07:51:47;;;;;;;3.42;1.00;;;;;;;;;;4978788;28;20030;-69
2022/06/01 07:54:14;;;;;;;1.75;0.73;;;;;;;;;;4993299;28;20129;-69
2022/06/01 07:56:40;;;;;;;2.83;1.27;;;;;;;;;;4993001;28;20027;-69
2022/06/01 07:59:06;;;;;;;2.17;0.77;;;;;;;;;;4991805;28;20054;-68
2022/06/01 08:01:33;;;;;;;1.45;0.98;;;;;;;;;;4993346;28;20026;-68
2022/06/01 08:04:02;;;;;;;1.38;1.13;;;;;;;;;;4993233;28;20034;-68
2022/06/01 08:06:28;;;;;;;2.72;1.15;;;;;;;;;;4993010;28;20026;-69
2022/06/01 08:08:54;;;;;;;0.75;0.70;;;;;;;;;;4991747;28;20030;-69
2022/06/01 08:13:06;;;;;;;1.58;0.90;;;;;;;;;;4992683;28;20031;-67
2022/06/01 08:14:08;;;;;;;1.85;0.80;;;;;;;;;;4992631;28;20038;-68
2022/06/01 08:16:34;;;;;;;1.52;1.10;;;;;;;;;;4981638;28;20026;-68
2022/06/01 08:19:00;;;;;;;1.38;0.93;;;;;;;;;;4989243;28;20432;-68
2022/06/01 08:21:28;;;;;;;1.48;0.90;;;;;;;;;;4973384;28;20485;-69
2022/06/01 08:23:54;;;;;;;2.85;0.98;;;;;;;;;;4979290;28;20290;-69
2022/06/01 08:26:20;;;;;;;1.27;1.08;;;;;;;;;;4992568;28;20066;-68
2022/06/01 08:28:46;;;;;;;1.10;0.70;;;;;;;;;;4991935;28;20022;-69
2022/06/01 08:31:12;;;;;;;2.38;0.90;;;;;;;;;;4992508;28;20485;-68
2022/06/01 08:33:38;;;;;;;1.08;0.80;;;;;;;;;;4976716;28;20516;-67
2022/06/01 08:36:04;;;;;;;0.80;0.80;;;;;;;;;;4973148;28;20437;-71
2022/06/01 08:38:30;;;;;;;1.02;0.93;;;;;;;;;;4973101;28;20030;-70
2022/06/01 08:41:03;;;;;;;2.25;1.05;;;;;;;;;;4975484;28;20031;-71
2022/06/01 08:43:30;;;;;;;1.65;1.00;;;;;;;;;;4976650;28;20600;-69
2022/06/01 08:46:00;;;;;;;1.17;1.13;;;33.50;23.70;;;;;;4976464;28;20038;-69
2022/06/01 08:48:53;;;;;;;1.33;0.82;;;33.30;23.90;;;;;;4975340;28;20030;-69
2022/06/01 08:51:20;;;;;;;1.60;0.90;;;;;;;;;;4974752;28;20042;-70
2022/06/01 08:53:46;;;;;;;2.03;1.02;;;30.40;26.60;;;;;;4991064;28;20034;-70
2022/06/01 08:56:42;;;;;;;2.33;0.80;;;29.50;27.70;;;;;;4991520;28;20026;-70
2022/06/01 08:59:41;;;;;;;1.30;1.17;;;29.90;27.70;;;;;;4992033;28;20580;-70
2022/06/01 09:02:15;;;;;;;1.80;1.27;;;30.60;27.50;;;;;;4991217;28;20022;-70
2022/06/01 09:04:56;;;;;;;1.67;1.33;;;30.20;27.90;;;;;;4992148;28;20022;-70
2022/06/01 09:07:22;;;;;;;;;;;;;;;;;;4990525;28;20027;-69
2022/06/01 09:10:26;;;;;;;0.98;0.75;;;31.50;24.90;;;;;;4992290;28;19916;-70
2022/06/01 09:13:06;;;;;;;1.55;0.88;;;31.20;24.60;;;;;;4992686;28;20023;-70
2022/06/01 09:15:47;;;;;;;1.53;0.87;;;31.30;24.30;;;;;;4992929;28;20480;-70
2022/06/01 09:18:14;;;;;;;2.20;1.00;;;31.30;24.20;;;;;;4991925;28;20046;-71
2022/06/01 09:23:24;;;;;;;47.35;36.45;;;28.90;25.90;;;;;;4996868;28;20038;-69
2022/06/01 09:25:54;;;;;;;67.57;45.90;;;28.20;28.60;;;;;;4996613;28;20030;-70
2022/06/01 09:28:27;;;;;;;14.07;7.97;;;27.90;30.70;;;;;;4995614;28;20400;-71
2022/06/01 09:31:07;;;;;;;106.00;67.97;;;27.80;29.10;;;;;;4996504;28;20049;-70
2022/06/01 09:33:35;;;;;;;77.53;50.97;;;;;;;;;;4996063;28;20029;-71
2022/06/01 09:36:06;;;;;;;34.92;22.83;;;29.40;28.40;;;;;;4995822;28;20034;-71
2022/06/01 09:38:39;;;;;;;63.17;38.47;;;30.20;27.80;;;;;;4995007;28;20026;-72
2022/06/01 09:41:31;;;;;;;10.18;6.35;;;30.80;27.80;;;;;;4995645;28;20062;-72
2022/06/01 09:44:00;;;;;;;6.57;4.35;;;30.80;26.20;;;;;;4994782;28;20496;-68
2022/06/01 09:46:48;;;;;;;6.30;4.00;;;29.60;27.30;;;;;;4993653;28;20034;-69
2022/06/01 09:49:27;;;;;;;17.08;11.70;;;28.60;28.70;;;;;;4994618;28;20030;-70
2022/06/01 09:52:06;;;;;;;12.95;6.93;;;28.30;31.70;;;;;;4995880;28;20105;-69
2022/06/01 09:54:34;;;;;;;5.70;3.28;;;28.40;32.30;;;;;;4995561;28;20018;-70
2022/06/01 09:57:23;;;;;;;7.60;3.58;;;28.20;31.20;;;;;;4995107;28;20022;-71
2022/06/01 10:08:31;;;;;;;3.63;1.80;;;26.40;34.00;;;;;;4994674;28;20049;-70
2022/06/01 10:11:05;;;;;;;4.72;2.72;;;26.70;33.40;;;;;;4995195;28;20037;-71
2022/06/01 10:13:37;;;;;;;5.45;2.80;;;26.50;34.10;;;;;;4995385;28;20154;-71
2022/06/01 10:16:39;;;;;;;2.78;1.60;;;26.70;34.40;;;;;;4994738;28;20034;-71
2022/06/01 10:19:11;;;;;;;4.40;2.15;;;26.80;32.20;;;;;;4984104;28;20066;-69
2022/06/01 10:22:00;;;;;;;1.75;1.33;;;26.80;34.40;;;;;;4995588;28;20041;-70
2022/06/01 10:24:55;;;;;;;3.05;1.95;;;26.90;32.90;;;;;;4995283;28;20424;-70
2022/06/01 10:27:24;;;;;;;4.63;1.63;;;27.00;32.80;;;;;;4994306;28;20100;-69
2022/06/01 10:30:07;;;;;;;5.03;1.58;;;26.90;32.40;;;;;;4995266;28;20081;-70
2022/06/01 10:32:36;;;;;;;6.15;1.90;;;26.70;31.10;;;;;;4994802;28;20068;-71
2022/06/01 10:35:28;;;;;;;2.40;1.35;;;26.70;33.40;;;;;;4995038;28;20056;-69
2022/06/01 10:38:05;;;;;;;3.75;1.27;;;26.90;32.40;;;;;;4994534;28;20057;-69
2022/06/01 10:40:38;;;;;;;3.60;1.40;;;26.80;31.10;;;;;;4994889;28;20031;-70
2022/06/01 10:43:31;;;;;;;2.67;1.30;;;25.80;33.70;;;;;;4995175;28;20096;-70
2022/06/01 10:46:10;;;;;;;5.75;1.02;;;25.80;33.80;;;;;;4984529;28;20035;-70
2022/06/01 10:48:46;;;;;;;2.72;1.30;;;25.90;33.00;;;;;;4994053;28;20034;-71
2022/06/01 10:51:17;;;;;;;3.63;1.27;;;25.40;34.90;;;;;;4994751;28;20029;-70
2022/06/01 10:53:52;;;;;;;2.92;1.40;;;;;;;;;;4993393;28;20077;-70
2022/06/01 10:56:19;;;;;;;4.50;2.13;;;;;;;;;;4994921;28;20427;-71
2022/06/01 10:58:45;;;;;;;1.45;1.35;;;;;;;;;;4994188;28;20026;-70
2022/06/01 11:01:15;;;;;;;1.63;1.30;;;;;;;;;;4991458;28;20080;-68
2022/06/01 11:04:00;;;;;;;3.38;1.42;;;;;;;;;;4993102;28;20026;-71
2022/06/01 11:06:38;;;;;;;3.33;1.55;;;;;;;;;;4993041;28;20034;-69
2022/06/01 11:09:10;;;;;;;1.83;1.30;;;;;;;;;;4993753;28;20432;-69
2022/06/01 11:11:47;;;;;;;2.08;1.60;;;;;;;;;;4995347;28;20096;-70
2022/06/01 11:14:39;;;;;;;4.68;1.73;;;;;;;;;;4993453;28;20023;-70
2022/06/01 11:17:17;;;;;;;3.92;1.42;;;;;;;;;;4992882;28;20038;-70
2022/06/01 11:19:56;;;;;;;3.60;1.40;;;;;;;;;;4994262;28;20034;-70
2022/06/01 11:22:42;;;;;;;1.38;1.25;;;;;;;;;;4994121;28;20026;-69
2022/06/01 11:25:20;;;;;;;2.88;1.98;;;;;;;;;;4993979;28;20098;-68
2022/06/01 11:27:49;;;;;;;2.08;1.33;;;;;;;;;;4993268;28;20023;-69
2022/06/01 11:30:18;;;;;;;2.25;1.70;;;;;;;;;;4992507;28;20518;-69
2022/06/01 11:33:09;;;;;;;2.42;1.80;;;;;;;;;;4994255;28;20022;-71
2022/06/01 11:35:38;;;;;;;1.75;1.27;;;;;;;;;;4994092;28;20102;-70
2022/06/01 11:38:08;;;;;;;4.63;1.60;;;;;;;;;;4993213;28;20378;-69
2022/06/01 11:40:34;;;;;;;2.63;1.80;;;;;;;;;;4993819;28;20081;-69
2022/06/01 11:43:05;;;;;;;5.78;1.80;;;;;;;;;;4994415;28;20038;-70
2022/06/01 11:45:35;;;;;;;1.80;1.20;;;;;;;;;;4994183;28;20057;-70
2022/06/01 11:48:04;;;;;;;3.40;1.42;;;;;;;;;;4994092;28;20125;-71
2022/06/01 11:50:32;;;;;;;4.93;2.67;;;;;;;;;;4993778;28;20089;-69
2022/06/01 11:52:58;;;;;;;3.40;1.52;;;;;;;;;;4993647;28;20097;-71
2022/06/01 11:55:41;;;;;;;3.33;1.58;;;;;;;;;;4993888;28;20544;-71
2022/06/01 11:58:10;;;;;;;2.30;1.45;;;;;;;;;;4992166;28;20029;-70
2022/06/01 12:00:49;;;;;;;5.18;1.80;;;;;;;;;;4994437;28;20388;-70
2022/06/01 12:03:18;;;;;;;2.35;1.55;;;;;;;;;;4995014;28;20082;-70
2022/06/01 12:06:03;;;;;;;2.13;1.55;;;;;;;;;;4996659;28;20031;-70
2022/06/01 12:08:36;;;;;;;1.80;1.70;;;;;;;;;;4993746;28;20408;-70
2022/06/01 12:11:04;;;;;;;4.38;1.73;;;;;;;;;;4995083;28;20030;-69
2022/06/01 12:13:38;;;;;;;2.67;1.30;;;;;;;;;;4999043;28;20022;-70
2022/06/01 12:16:27;;;;;;;2.67;1.20;;;;;;;;;;4995870;28;20023;-69
2022/06/01 12:19:31;;;;;;;3.95;1.70;;;;;;;;;;4992465;28;20038;-70
2022/06/01 12:22:00;;;;;;;5.05;2.17;;;;;;;;;;4999820;28;20041;-69
2022/06/01 12:30:08;;;;;;;5.13;1.52;;;;;;;;;;4997271;28;20124;-70
2022/06/01 12:32:54;;;;;;;1.90;1.20;;;;;;;;;;4994031;28;20496;-69
2022/06/01 12:35:21;;;;;;;2.35;1.60;;;;;;;;;;4993897;28;20025;-71
2022/06/01 12:37:59;;;;;;;2.55;1.40;;;;;;;;;;4992666;28;20400;-70
2022/06/01 12:40:26;;;;;;;2.65;1.48;;;;;;;;;;4993739;28;20026;-70
2022/06/01 12:42:53;;;;;;;4.35;1.33;;;;;;;;;;4993414;28;20036;-69
2022/06/01 12:45:20;;;;;;;3.97;1.50;;;;;;;;;;4992942;28;20030;-69
2022/06/01 12:47:53;;;;;;;1.90;1.30;;;;;;;;;;5006917;23;20464;-68
2022/06/01 12:50:21;;;;;;;1.40;1.00;;;;;;;;;;4992253;28;20126;-70
2022/06/01 12:52:48;;;;;;;2.05;1.25;;;;;;;;;;4992207;28;20029;-67
2022/06/01 12:55:21;;;;;;;1.42;1.20;;;;;;;;;;4992284;28;20022;-69
2022/06/01 12:57:55;;;;;;;1.83;1.10;;;;;;;;;;4991296;28;20030;-68
2022/06/01 13:00:21;;;;;;;1.85;1.10;;;;;;;;;;4990593;28;20028;-67
2022/06/01 13:02:47;;;;;;;4.03;1.30;;;;;;;;;;4990989;28;20137;-69
2022/06/01 13:05:19;;;;;;;3.85;1.25;;;;;;;;;;4992041;28;20084;-69
2022/06/01 13:07:46;;;;;;;2.17;1.17;;;;;;;;;;4991305;28;20034;-68
2022/06/01 13:10:21;;;;;;;1.50;1.10;;;;;;;;;;4990789;28;20027;-70
2022/06/01 13:12:47;;;;;;;2.00;1.27;;;;;;;;;;4992104;28;20027;-68
2022/06/01 13:15:18;;;;;;;2.67;0.90;;;;;;;;;;4992162;28;20034;-66
2022/06/01 13:17:52;;;;;;;2.90;1.30;;;;;;;;;;4991040;28;20049;-69
2022/06/01 13:20:21;;;;;;;1.80;0.90;;;;;;;;;;4992046;28;20026;-69
2022/06/01 13:22:50;;;;;;;2.63;1.23;;;;;;;;;;4992200;28;20030;-69
2022/06/01 13:25:20;;;;;;;4.18;1.50;;;;;;;;;;4992022;28;20503;-68
2022/06/01 13:27:47;;;;;;;2.03;1.17;;;;;;;;;;4991334;28;20027;-69
2022/06/01 13:30:16;;;;;;;3.33;1.17;;;;;;;;;;4991480;28;20037;-68
2022/06/01 13:32:43;;;;;;;1.88;1.00;;;;;;;;;;4992075;28;20101;-68
2022/06/01 13:35:22;;;;;;;4.07;1.00;;;;;;;;;;4991929;28;20042;-69
2022/06/01 13:37:51;;;;;;;1.75;0.90;;;;;;;;;;4989932;28;20030;-70
2022/06/01 13:40:23;;;;;;;2.83;1.15;;;;;;;;;;4992144;28;20030;-69
2022/06/01 13:42:50;;;;;;;1.33;1.20;;;;;;;;;;4992450;28;20033;-69
2022/06/01 13:45:18;;;;;;;3.80;1.52;;;;;;;;;;4991899;28;20050;-69
2022/06/01 13:47:50;;;;;;;2.47;1.33;;;;;;;;;;4991024;28;20035;-69
2022/06/01 13:50:16;;;;;;;3.60;1.50;;;;;;;;;;4991719;28;20033;-69
2022/06/01 13:52:45;;;;;;;1.23;1.05;;;;;;;;;;4991763;28;20018;-69
2022/06/01 13:55:22;;;;;;;2.72;1.33;;;;;;;;;;4990440;28;20019;-70
2022/06/01 13:58:06;;;;;;;2.22;1.48;;;;;;;;;;4991012;28;20054;-69
2022/06/01 14:00:36;;;;;;;1.45;1.15;;;;;;;;;;4991345;28;20026;-67
2022/06/01 14:03:06;;;;;;;2.00;1.02;;;;;;;;;;4990211;28;20081;-68
2022/06/01 14:05:36;;;;;;;2.35;1.40;;;;;;;;;;4991384;28;20122;-69
2022/06/01 14:08:04;;;;;;;1.70;1.02;;;;;;;;;;4991594;28;20066;-68
2022/06/01 14:10:34;;;;;;;1.88;1.30;;;;;;;;;;4995119;28;20143;-69
2022/06/01 14:13:00;;;;;;;1.83;1.25;;;;;;;;;;4995544;28;20034;-69
2022/06/01 14:15:26;;;;;;;1.67;1.10;;;;;;;;;;4995134;28;20102;-69
2022/06/01 14:17:52;;;;;;;3.40;1.00;;;;;;;;;;4993880;28;20116;-68
2022/06/01 14:20:18;;;;;;;1.23;1.13;;;;;;;;;;4994912;28;20072;-68
2022/06/01 14:22:44;;;;;;;3.03;1.38;;;;;;;;;;4995138;28;20030;-69
2022/06/01 14:30:39;;;;;;;2.20;1.30;;;23.50;39.40;;;;;;4994623;28;20045;-69
2022/06/01 14:33:09;;;;;;;1.23;1.05;;;23.40;38.90;;;;;;4994650;28;20388;-68
2022/06/01 14:35:35;;;;;;;4.32;1.52;;;23.40;39.80;;;;;;4994596;28;20023;-70
2022/06/01 14:38:01;;;;;;;3.53;1.10;;;23.50;38.60;;;;;;4994098;28;20382;-69
2022/06/01 14:40:26;;;;;;;1.92;1.10;;;23.70;38.80;;;;;;4995066;28;20026;-68
2022/06/01 14:42:52;;;;;;;3.83;1.40;;;23.50;38.60;;;;;;4994765;28;20273;-68
2022/06/01 14:45:18;;;;;;;1.98;1.17;;;22.60;40.60;;;;;;4994566;28;20057;-69
2022/06/01 14:47:44;;;;;;;2.00;1.30;;;22.30;41.00;;;;;;4994029;28;20105;-68
2022/06/01 14:50:09;;;;;;;2.13;1.00;;;22.40;42.40;;;;;;4994607;28;20022;-68
2022/06/01 14:52:37;;;;;;;1.90;0.93;;;22.80;42.20;;;;;;4994518;28;20038;-69
2022/06/01 14:55:04;;;;;;;5.47;1.50;;;22.80;41.80;;;;;;4994306;28;20102;-69
2022/06/01 14:57:29;;;;;;;2.22;1.52;;;22.60;41.20;;;;;;4993512;28;20070;-69
2022/06/01 14:59:55;;;;;;;4.78;1.73;;;22.40;44.20;;;;;;4994404;28;20078;-68
2022/06/01 15:02:23;;;;;;;2.88;1.40;;;22.50;45.10;;;;;;4994517;28;20441;-69
2022/06/01 15:04:55;;;;;;;2.83;1.95;;;22.70;42.40;;;;;;4994750;28;20048;-69